sensor_id;sensor_type;location;lat;lon;timestamp;P1;durP1;ratioP1;P2;durP2;ratioP2
11141;SDS011;5625;50.122;19.864;2023-04-16T00:02:07;26.70;;;23.33;;
11141;SDS011;5625;50.122;19.864;2023-04-16T00:04:35;29.00;;;24.53;;
11141;SDS011;5625;50.122;19.864;2023-04-16T00:07:05;29.03;;;24.67;;
11141;SDS011;5625;50.122;19.864;2023-04-16T00:09:34;33.70;;;25.87;;
11141;SDS011;5625;50.122;19.864;2023-04-16T00:12:02;31.57;;;26.43;;
11141;SDS011;5625;50.122;19.864;2023-04-16T00:14:32;30.77;;;25.73;;
11141;SDS011;5625;50.122;19.864;2023-04-16T00:17:00;30.67;;;25.63;;
11141;SDS011;5625;50.122;19.864;2023-04-16T00:19:28;30.23;;;25.67;;
11141;SDS011;5625;50.122;19.864;2023-04-16T00:21:58;32.20;;;26.10;;
11141;SDS011;5625;50.122;19.864;2023-04-16T00:24:28;32.60;;;26.30;;
11141;SDS011;5625;50.122;19.864;2023-04-16T00:26:55;31.23;;;24.87;;
11141;SDS011;5625;50.122;19.864;2023-04-16T00:29:25;29.70;;;25.23;;
11141;SDS011;5625;50.122;19.864;2023-04-16T00:31:53;27.30;;;24.40;;
11141;SDS011;5625;50.122;19.864;2023-04-16T00:34:21;30.67;;;26.30;;
11141;SDS011;5625;50.122;19.864;2023-04-16T00:36:49;29.60;;;25.23;;
11141;SDS011;5625;50.122;19.864;2023-04-16T00:39:17;32.07;;;25.23;;
11141;SDS011;5625;50.122;19.864;2023-04-16T00:41:47;29.80;;;26.17;;
11141;SDS011;5625;50.122;19.864;2023-04-16T00:44:15;33.40;;;26.20;;
11141;SDS011;5625;50.122;19.864;2023-04-16T00:46:43;31.73;;;25.43;;
11141;SDS011;5625;50.122;19.864;2023-04-16T00:49:12;31.70;;;25.50;;
11141;SDS011;5625;50.122;19.864;2023-04-16T00:51:40;29.20;;;24.10;;
11141;SDS011;5625;50.122;19.864;2023-04-16T00:54:09;28.93;;;23.77;;
11141;SDS011;5625;50.122;19.864;2023-04-16T00:56:37;28.90;;;25.40;;
11141;SDS011;5625;50.122;19.864;2023-04-16T00:59:07;32.63;;;26.17;;
11141;SDS011;5625;50.122;19.864;2023-04-16T01:01:36;30.63;;;25.97;;
11141;SDS011;5625;50.122;19.864;2023-04-16T01:04:04;28.57;;;24.33;;
11141;SDS011;5625;50.122;19.864;2023-04-16T01:06:33;31.87;;;27.37;;
11141;SDS011;5625;50.122;19.864;2023-04-16T01:09:01;34.63;;;29.77;;
11141;SDS011;5625;50.122;19.864;2023-04-16T01:11:29;32.90;;;29.23;;
11141;SDS011;5625;50.122;19.864;2023-04-16T01:13:57;32.50;;;28.27;;
11141;SDS011;5625;50.122;19.864;2023-04-16T01:16:27;33.37;;;28.00;;
11141;SDS011;5625;50.122;19.864;2023-04-16T01:18:55;33.83;;;29.27;;
11141;SDS011;5625;50.122;19.864;2023-04-16T01:21:24;36.20;;;29.97;;
11141;SDS011;5625;50.122;19.864;2023-04-16T01:23:52;34.50;;;27.60;;
11141;SDS011;5625;50.122;19.864;2023-04-16T01:26:20;36.77;;;29.30;;
11141;SDS011;5625;50.122;19.864;2023-04-16T01:28:48;37.07;;;30.80;;
11141;SDS011;5625;50.122;19.864;2023-04-16T01:31:16;35.70;;;29.67;;
11141;SDS011;5625;50.122;19.864;2023-04-16T01:33:44;38.70;;;31.93;;
11141;SDS011;5625;50.122;19.864;2023-04-16T01:36:12;36.10;;;29.93;;
11141;SDS011;5625;50.122;19.864;2023-04-16T01:38:42;39.10;;;32.83;;
11141;SDS011;5625;50.122;19.864;2023-04-16T01:41:10;37.60;;;31.33;;
11141;SDS011;5625;50.122;19.864;2023-04-16T01:43:40;38.20;;;31.00;;
11141;SDS011;5625;50.122;19.864;2023-04-16T01:46:11;36.73;;;30.30;;
11141;SDS011;5625;50.122;19.864;2023-04-16T01:48:41;38.53;;;31.00;;
11141;SDS011;5625;50.122;19.864;2023-04-16T01:51:09;35.53;;;29.27;;
11141;SDS011;5625;50.122;19.864;2023-04-16T01:53:37;34.23;;;28.83;;
11141;SDS011;5625;50.122;19.864;2023-04-16T01:56:07;37.33;;;31.30;;
11141;SDS011;5625;50.122;19.864;2023-04-16T01:58:35;36.57;;;29.33;;
11141;SDS011;5625;50.122;19.864;2023-04-16T02:01:03;36.93;;;29.87;;
11141;SDS011;5625;50.122;19.864;2023-04-16T02:03:32;36.87;;;30.40;;
11141;SDS011;5625;50.122;19.864;2023-04-16T02:06:00;38.53;;;31.27;;
11141;SDS011;5625;50.122;19.864;2023-04-16T02:08:28;39.70;;;29.90;;
11141;SDS011;5625;50.122;19.864;2023-04-16T02:10:57;39.20;;;31.20;;
11141;SDS011;5625;50.122;19.864;2023-04-16T02:13:27;36.77;;;29.67;;
11141;SDS011;5625;50.122;19.864;2023-04-16T02:15:55;39.27;;;30.47;;
11141;SDS011;5625;50.122;19.864;2023-04-16T02:18:23;41.60;;;31.67;;
11141;SDS011;5625;50.122;19.864;2023-04-16T02:20:51;37.67;;;29.47;;
11141;SDS011;5625;50.122;19.864;2023-04-16T02:23:19;34.57;;;29.17;;
11141;SDS011;5625;50.122;19.864;2023-04-16T02:25:47;36.90;;;28.67;;
11141;SDS011;5625;50.122;19.864;2023-04-16T02:28:16;36.23;;;29.10;;
11141;SDS011;5625;50.122;19.864;2023-04-16T02:30:46;37.63;;;29.23;;
11141;SDS011;5625;50.122;19.864;2023-04-16T02:33:14;34.47;;;28.20;;
11141;SDS011;5625;50.122;19.864;2023-04-16T02:35:42;32.60;;;27.57;;
11141;SDS011;5625;50.122;19.864;2023-04-16T02:38:10;39.60;;;28.33;;
11141;SDS011;5625;50.122;19.864;2023-04-16T02:40:38;56.37;;;30.27;;
11141;SDS011;5625;50.122;19.864;2023-04-16T02:43:07;37.23;;;26.83;;
11141;SDS011;5625;50.122;19.864;2023-04-16T02:45:35;36.50;;;26.70;;
11141;SDS011;5625;50.122;19.864;2023-04-16T02:48:04;36.10;;;28.33;;
11141;SDS011;5625;50.122;19.864;2023-04-16T02:50:34;36.17;;;27.50;;
11141;SDS011;5625;50.122;19.864;2023-04-16T02:53:02;33.87;;;25.40;;
11141;SDS011;5625;50.122;19.864;2023-04-16T02:55:31;34.13;;;26.33;;
11141;SDS011;5625;50.122;19.864;2023-04-16T02:57:59;33.53;;;25.20;;
11141;SDS011;5625;50.122;19.864;2023-04-16T03:00:27;34.03;;;25.97;;
11141;SDS011;5625;50.122;19.864;2023-04-16T03:02:55;34.10;;;26.73;;
11141;SDS011;5625;50.122;19.864;2023-04-16T03:05:25;35.57;;;27.23;;
11141;SDS011;5625;50.122;19.864;2023-04-16T03:07:53;38.20;;;29.33;;
11141;SDS011;5625;50.122;19.864;2023-04-16T03:10:22;36.13;;;26.50;;
11141;SDS011;5625;50.122;19.864;2023-04-16T03:12:50;38.90;;;27.00;;
11141;SDS011;5625;50.122;19.864;2023-04-16T03:15:18;37.80;;;27.57;;
11141;SDS011;5625;50.122;19.864;2023-04-16T03:17:46;36.53;;;27.90;;
11141;SDS011;5625;50.122;19.864;2023-04-16T03:20:14;35.93;;;27.00;;
11141;SDS011;5625;50.122;19.864;2023-04-16T03:22:44;36.77;;;27.10;;
11141;SDS011;5625;50.122;19.864;2023-04-16T03:25:12;35.20;;;25.67;;
11141;SDS011;5625;50.122;19.864;2023-04-16T03:27:40;35.03;;;25.90;;
11141;SDS011;5625;50.122;19.864;2023-04-16T03:30:09;31.83;;;25.77;;
11141;SDS011;5625;50.122;19.864;2023-04-16T03:32:38;34.33;;;26.97;;
11141;SDS011;5625;50.122;19.864;2023-04-16T03:35:07;33.93;;;26.87;;
11141;SDS011;5625;50.122;19.864;2023-04-16T03:37:36;32.67;;;25.83;;
11141;SDS011;5625;50.122;19.864;2023-04-16T03:40:06;34.57;;;25.93;;
11141;SDS011;5625;50.122;19.864;2023-04-16T03:42:35;49.73;;;26.53;;
11141;SDS011;5625;50.122;19.864;2023-04-16T03:45:03;35.40;;;26.33;;
11141;SDS011;5625;50.122;19.864;2023-04-16T03:47:32;34.70;;;27.07;;
11141;SDS011;5625;50.122;19.864;2023-04-16T03:50:00;38.07;;;25.97;;
11141;SDS011;5625;50.122;19.864;2023-04-16T03:52:28;36.87;;;27.23;;
11141;SDS011;5625;50.122;19.864;2023-04-16T03:54:56;36.53;;;26.27;;
11141;SDS011;5625;50.122;19.864;2023-04-16T03:57:26;36.00;;;25.93;;
11141;SDS011;5625;50.122;19.864;2023-04-16T03:59:53;35.37;;;27.00;;
11141;SDS011;5625;50.122;19.864;2023-04-16T04:02:21;36.20;;;27.77;;
11141;SDS011;5625;50.122;19.864;2023-04-16T04:04:52;34.77;;;26.07;;
11141;SDS011;5625;50.122;19.864;2023-04-16T04:07:20;38.67;;;28.17;;
11141;SDS011;5625;50.122;19.864;2023-04-16T04:09:48;35.57;;;27.07;;
11141;SDS011;5625;50.122;19.864;2023-04-16T04:12:16;34.63;;;26.80;;
11141;SDS011;5625;50.122;19.864;2023-04-16T04:14:46;35.97;;;26.33;;
11141;SDS011;5625;50.122;19.864;2023-04-16T04:17:14;32.57;;;25.43;;
11141;SDS011;5625;50.122;19.864;2023-04-16T04:19:42;35.13;;;26.73;;
11141;SDS011;5625;50.122;19.864;2023-04-16T04:22:26;33.23;;;26.60;;
11141;SDS011;5625;50.122;19.864;2023-04-16T04:24:54;34.67;;;27.03;;
11141;SDS011;5625;50.122;19.864;2023-04-16T04:27:22;36.93;;;26.77;;
11141;SDS011;5625;50.122;19.864;2023-04-16T04:29:52;34.67;;;26.67;;
11141;SDS011;5625;50.122;19.864;2023-04-16T04:32:20;35.17;;;27.47;;
11141;SDS011;5625;50.122;19.864;2023-04-16T04:34:48;38.47;;;30.47;;
11141;SDS011;5625;50.122;19.864;2023-04-16T04:37:16;40.27;;;30.23;;
11141;SDS011;5625;50.122;19.864;2023-04-16T04:39:44;39.33;;;29.60;;
11141;SDS011;5625;50.122;19.864;2023-04-16T04:42:12;42.40;;;30.60;;
11141;SDS011;5625;50.122;19.864;2023-04-16T04:44:40;39.47;;;30.20;;
11141;SDS011;5625;50.122;19.864;2023-04-16T04:47:09;37.53;;;29.27;;
11141;SDS011;5625;50.122;19.864;2023-04-16T04:49:42;42.57;;;29.73;;
11141;SDS011;5625;50.122;19.864;2023-04-16T04:52:10;43.53;;;30.23;;
11141;SDS011;5625;50.122;19.864;2023-04-16T04:54:38;43.33;;;31.00;;
11141;SDS011;5625;50.122;19.864;2023-04-16T04:57:07;40.60;;;29.13;;
11141;SDS011;5625;50.122;19.864;2023-04-16T04:59:35;41.87;;;29.17;;
11141;SDS011;5625;50.122;19.864;2023-04-16T05:02:03;46.13;;;30.03;;
11141;SDS011;5625;50.122;19.864;2023-04-16T05:04:37;48.43;;;31.90;;
11141;SDS011;5625;50.122;19.864;2023-04-16T05:07:05;47.43;;;31.70;;
11141;SDS011;5625;50.122;19.864;2023-04-16T05:09:33;47.37;;;30.63;;
11141;SDS011;5625;50.122;19.864;2023-04-16T05:12:01;47.30;;;30.50;;
11141;SDS011;5625;50.122;19.864;2023-04-16T05:14:31;43.10;;;29.00;;
11141;SDS011;5625;50.122;19.864;2023-04-16T05:16:59;47.03;;;30.40;;
11141;SDS011;5625;50.122;19.864;2023-04-16T05:19:27;47.20;;;31.07;;
11141;SDS011;5625;50.122;19.864;2023-04-16T05:21:56;50.30;;;30.80;;
11141;SDS011;5625;50.122;19.864;2023-04-16T05:24:24;53.43;;;33.30;;
11141;SDS011;5625;50.122;19.864;2023-04-16T05:26:52;54.40;;;33.03;;
11141;SDS011;5625;50.122;19.864;2023-04-16T05:29:22;50.37;;;31.10;;
11141;SDS011;5625;50.122;19.864;2023-04-16T05:31:52;52.03;;;31.33;;
11141;SDS011;5625;50.122;19.864;2023-04-16T05:34:20;63.03;;;34.27;;
11141;SDS011;5625;50.122;19.864;2023-04-16T05:36:48;50.10;;;31.13;;
11141;SDS011;5625;50.122;19.864;2023-04-16T05:39:18;55.47;;;32.47;;
11141;SDS011;5625;50.122;19.864;2023-04-16T05:41:46;58.03;;;33.13;;
11141;SDS011;5625;50.122;19.864;2023-04-16T05:44:14;59.67;;;33.00;;
11141;SDS011;5625;50.122;19.864;2023-04-16T05:46:42;61.70;;;34.43;;
11141;SDS011;5625;50.122;19.864;2023-04-16T05:49:10;57.70;;;33.33;;
11141;SDS011;5625;50.122;19.864;2023-04-16T05:51:38;52.03;;;30.90;;
11141;SDS011;5625;50.122;19.864;2023-04-16T05:54:06;55.40;;;33.03;;
11141;SDS011;5625;50.122;19.864;2023-04-16T05:56:35;55.37;;;31.37;;
11141;SDS011;5625;50.122;19.864;2023-04-16T05:59:05;57.10;;;32.00;;
11141;SDS011;5625;50.122;19.864;2023-04-16T06:01:34;54.83;;;31.73;;
11141;SDS011;5625;50.122;19.864;2023-04-16T06:04:02;57.37;;;32.53;;
11141;SDS011;5625;50.122;19.864;2023-04-16T06:06:32;55.07;;;32.03;;
11141;SDS011;5625;50.122;19.864;2023-04-16T06:09:00;53.47;;;31.93;;
11141;SDS011;5625;50.122;19.864;2023-04-16T06:11:28;54.03;;;31.33;;
11141;SDS011;5625;50.122;19.864;2023-04-16T06:13:58;67.03;;;36.13;;
11141;SDS011;5625;50.122;19.864;2023-04-16T06:16:26;61.27;;;33.60;;
11141;SDS011;5625;50.122;19.864;2023-04-16T06:18:54;61.03;;;34.67;;
11141;SDS011;5625;50.122;19.864;2023-04-16T06:21:22;56.87;;;32.53;;
11141;SDS011;5625;50.122;19.864;2023-04-16T06:23:50;58.77;;;32.80;;
11141;SDS011;5625;50.122;19.864;2023-04-16T06:26:18;58.30;;;33.23;;
11141;SDS011;5625;50.122;19.864;2023-04-16T06:28:46;57.23;;;32.70;;
11141;SDS011;5625;50.122;19.864;2023-04-16T06:31:16;57.63;;;32.63;;
11141;SDS011;5625;50.122;19.864;2023-04-16T06:33:44;51.40;;;31.63;;
11141;SDS011;5625;50.122;19.864;2023-04-16T06:36:14;52.30;;;30.90;;
11141;SDS011;5625;50.122;19.864;2023-04-16T06:38:43;52.47;;;32.63;;
11141;SDS011;5625;50.122;19.864;2023-04-16T06:41:12;52.53;;;31.07;;
11141;SDS011;5625;50.122;19.864;2023-04-16T06:43:40;49.23;;;29.67;;
11141;SDS011;5625;50.122;19.864;2023-04-16T06:46:08;52.77;;;30.63;;
11141;SDS011;5625;50.122;19.864;2023-04-16T06:48:38;47.33;;;30.30;;
11141;SDS011;5625;50.122;19.864;2023-04-16T06:51:06;50.00;;;29.97;;
11141;SDS011;5625;50.122;19.864;2023-04-16T06:53:35;52.13;;;30.37;;
11141;SDS011;5625;50.122;19.864;2023-04-16T06:56:04;51.40;;;30.73;;
11141;SDS011;5625;50.122;19.864;2023-04-16T06:58:32;47.90;;;29.87;;
11141;SDS011;5625;50.122;19.864;2023-04-16T07:01:00;51.03;;;30.20;;
11141;SDS011;5625;50.122;19.864;2023-04-16T07:03:29;49.60;;;30.50;;
11141;SDS011;5625;50.122;19.864;2023-04-16T07:05:58;52.37;;;31.93;;
11141;SDS011;5625;50.122;19.864;2023-04-16T07:08:26;46.87;;;29.53;;
11141;SDS011;5625;50.122;19.864;2023-04-16T07:10:54;42.27;;;27.27;;
11141;SDS011;5625;50.122;19.864;2023-04-16T07:13:22;41.83;;;26.20;;
11141;SDS011;5625;50.122;19.864;2023-04-16T07:15:53;42.63;;;26.93;;
11141;SDS011;5625;50.122;19.864;2023-04-16T07:18:21;40.73;;;25.80;;
11141;SDS011;5625;50.122;19.864;2023-04-16T07:20:49;36.23;;;24.20;;
11141;SDS011;5625;50.122;19.864;2023-04-16T07:23:20;31.13;;;22.23;;
11141;SDS011;5625;50.122;19.864;2023-04-16T07:25:48;26.00;;;19.50;;
11141;SDS011;5625;50.122;19.864;2023-04-16T07:28:16;25.83;;;18.37;;
11141;SDS011;5625;50.122;19.864;2023-04-16T07:30:44;23.07;;;17.20;;
11141;SDS011;5625;50.122;19.864;2023-04-16T07:33:12;23.17;;;18.03;;
11141;SDS011;5625;50.122;19.864;2023-04-16T07:35:40;23.67;;;17.77;;
11141;SDS011;5625;50.122;19.864;2023-04-16T07:38:13;22.30;;;16.37;;
11141;SDS011;5625;50.122;19.864;2023-04-16T07:40:43;19.47;;;15.70;;
11141;SDS011;5625;50.122;19.864;2023-04-16T07:43:12;21.47;;;16.83;;
11141;SDS011;5625;50.122;19.864;2023-04-16T07:45:40;20.60;;;16.07;;
11141;SDS011;5625;50.122;19.864;2023-04-16T07:48:08;19.47;;;15.50;;
11141;SDS011;5625;50.122;19.864;2023-04-16T07:50:38;17.20;;;15.07;;
11141;SDS011;5625;50.122;19.864;2023-04-16T07:53:08;18.30;;;15.83;;
11141;SDS011;5625;50.122;19.864;2023-04-16T07:55:36;19.27;;;15.67;;
11141;SDS011;5625;50.122;19.864;2023-04-16T07:58:06;16.17;;;14.43;;
11141;SDS011;5625;50.122;19.864;2023-04-16T08:00:34;16.87;;;14.37;;
11141;SDS011;5625;50.122;19.864;2023-04-16T08:03:02;15.77;;;13.90;;
11141;SDS011;5625;50.122;19.864;2023-04-16T08:05:31;15.63;;;13.90;;
11141;SDS011;5625;50.122;19.864;2023-04-16T08:07:59;14.90;;;13.23;;
11141;SDS011;5625;50.122;19.864;2023-04-16T08:10:27;14.53;;;12.93;;
11141;SDS011;5625;50.122;19.864;2023-04-16T08:12:55;13.73;;;12.07;;
11141;SDS011;5625;50.122;19.864;2023-04-16T08:15:24;14.20;;;11.67;;
11141;SDS011;5625;50.122;19.864;2023-04-16T08:17:52;12.67;;;10.60;;
11141;SDS011;5625;50.122;19.864;2023-04-16T08:20:20;13.00;;;11.60;;
11141;SDS011;5625;50.122;19.864;2023-04-16T08:22:49;12.77;;;10.93;;
11141;SDS011;5625;50.122;19.864;2023-04-16T08:25:17;11.40;;;10.30;;
11141;SDS011;5625;50.122;19.864;2023-04-16T08:27:45;10.90;;;9.77;;
11141;SDS011;5625;50.122;19.864;2023-04-16T08:30:13;7.60;;;6.80;;
11141;SDS011;5625;50.122;19.864;2023-04-16T08:32:43;7.37;;;6.67;;
11141;SDS011;5625;50.122;19.864;2023-04-16T08:35:15;6.63;;;5.93;;
11141;SDS011;5625;50.122;19.864;2023-04-16T08:37:43;8.70;;;6.70;;
11141;SDS011;5625;50.122;19.864;2023-04-16T08:40:11;6.83;;;6.13;;
11141;SDS011;5625;50.122;19.864;2023-04-16T08:42:44;6.50;;;5.83;;
11141;SDS011;5625;50.122;19.864;2023-04-16T08:45:15;5.57;;;4.70;;
11141;SDS011;5625;50.122;19.864;2023-04-16T08:47:45;4.67;;;4.17;;
11141;SDS011;5625;50.122;19.864;2023-04-16T08:50:15;3.97;;;3.67;;
11141;SDS011;5625;50.122;19.864;2023-04-16T08:52:49;3.77;;;3.30;;
11141;SDS011;5625;50.122;19.864;2023-04-16T08:55:18;3.70;;;3.40;;
11141;SDS011;5625;50.122;19.864;2023-04-16T08:57:50;5.33;;;3.83;;
11141;SDS011;5625;50.122;19.864;2023-04-16T09:00:24;3.10;;;2.80;;
11141;SDS011;5625;50.122;19.864;2023-04-16T09:02:56;2.00;;;1.90;;
11141;SDS011;5625;50.122;19.864;2023-04-16T09:05:25;2.60;;;2.40;;
11141;SDS011;5625;50.122;19.864;2023-04-16T09:07:55;3.30;;;2.60;;
11141;SDS011;5625;50.122;19.864;2023-04-16T09:10:23;2.93;;;2.70;;
11141;SDS011;5625;50.122;19.864;2023-04-16T09:12:54;2.53;;;2.33;;
11141;SDS011;5625;50.122;19.864;2023-04-16T09:15:22;2.50;;;2.30;;
11141;SDS011;5625;50.122;19.864;2023-04-16T09:17:53;2.70;;;2.50;;
11141;SDS011;5625;50.122;19.864;2023-04-16T09:20:23;2.30;;;2.10;;
11141;SDS011;5625;50.122;19.864;2023-04-16T09:22:51;2.90;;;2.70;;
11141;SDS011;5625;50.122;19.864;2023-04-16T09:25:19;3.43;;;2.57;;
11141;SDS011;5625;50.122;19.864;2023-04-16T09:27:49;2.57;;;2.37;;
11141;SDS011;5625;50.122;19.864;2023-04-16T09:30:17;2.87;;;2.60;;
11141;SDS011;5625;50.122;19.864;2023-04-16T09:32:48;2.63;;;2.47;;
11141;SDS011;5625;50.122;19.864;2023-04-16T09:35:17;3.07;;;2.40;;
11141;SDS011;5625;50.122;19.864;2023-04-16T09:37:56;2.90;;;2.70;;
11141;SDS011;5625;50.122;19.864;2023-04-16T09:40:24;5.33;;;2.77;;
11141;SDS011;5625;50.122;19.864;2023-04-16T09:42:56;3.60;;;2.60;;
11141;SDS011;5625;50.122;19.864;2023-04-16T09:45:29;2.23;;;2.03;;
11141;SDS011;5625;50.122;19.864;2023-04-16T09:48:01;2.10;;;2.00;;
11141;SDS011;5625;50.122;19.864;2023-04-16T09:50:38;2.00;;;1.90;;
11141;SDS011;5625;50.122;19.864;2023-04-16T09:53:14;1.70;;;1.60;;
11141;SDS011;5625;50.122;19.864;2023-04-16T09:55:50;2.30;;;2.10;;
11141;SDS011;5625;50.122;19.864;2023-04-16T09:58:18;1.77;;;1.67;;
11141;SDS011;5625;50.122;19.864;2023-04-16T10:00:46;2.07;;;1.97;;
11141;SDS011;5625;50.122;19.864;2023-04-16T10:03:14;1.67;;;1.57;;
11141;SDS011;5625;50.122;19.864;2023-04-16T10:05:43;1.93;;;1.73;;
11141;SDS011;5625;50.122;19.864;2023-04-16T10:08:12;2.30;;;2.20;;
11141;SDS011;5625;50.122;19.864;2023-04-16T10:10:41;2.20;;;2.00;;
11141;SDS011;5625;50.122;19.864;2023-04-16T10:13:12;2.10;;;2.00;;
11141;SDS011;5625;50.122;19.864;2023-04-16T10:15:42;2.50;;;2.30;;
11141;SDS011;5625;50.122;19.864;2023-04-16T10:18:11;2.77;;;2.33;;
11141;SDS011;5625;50.122;19.864;2023-04-16T10:20:41;2.27;;;2.10;;
11141;SDS011;5625;50.122;19.864;2023-04-16T10:23:09;3.10;;;1.90;;
11141;SDS011;5625;50.122;19.864;2023-04-16T10:25:39;2.50;;;2.27;;
11141;SDS011;5625;50.122;19.864;2023-04-16T10:28:10;2.50;;;2.30;;
11141;SDS011;5625;50.122;19.864;2023-04-16T10:30:40;1.93;;;1.83;;
11141;SDS011;5625;50.122;19.864;2023-04-16T10:33:21;1.97;;;1.80;;
11141;SDS011;5625;50.122;19.864;2023-04-16T10:35:51;1.80;;;1.70;;
11141;SDS011;5625;50.122;19.864;2023-04-16T10:38:32;1.80;;;1.70;;
11141;SDS011;5625;50.122;19.864;2023-04-16T10:41:02;2.00;;;1.90;;
11141;SDS011;5625;50.122;19.864;2023-04-16T10:43:32;1.80;;;1.70;;
11141;SDS011;5625;50.122;19.864;2023-04-16T10:48:59;2.60;;;2.40;;
11141;SDS011;5625;50.122;19.864;2023-04-16T10:51:28;2.30;;;2.20;;
11141;SDS011;5625;50.122;19.864;2023-04-16T10:54:01;2.20;;;2.00;;
11141;SDS011;5625;50.122;19.864;2023-04-16T10:56:32;2.30;;;2.20;;
11141;SDS011;5625;50.122;19.864;2023-04-16T10:59:03;2.17;;;1.90;;
11141;SDS011;5625;50.122;19.864;2023-04-16T11:01:35;2.40;;;2.20;;
11141;SDS011;5625;50.122;19.864;2023-04-16T11:07:14;2.13;;;1.83;;
11141;SDS011;5625;50.122;19.864;2023-04-16T11:09:45;1.80;;;1.70;;
11141;SDS011;5625;50.122;19.864;2023-04-16T11:12:20;2.13;;;1.97;;
11141;SDS011;5625;50.122;19.864;2023-04-16T11:14:49;1.83;;;1.73;;
11141;SDS011;5625;50.122;19.864;2023-04-16T11:17:19;1.77;;;1.67;;
11141;SDS011;5625;50.122;19.864;2023-04-16T11:19:47;2.17;;;1.60;;
11141;SDS011;5625;50.122;19.864;2023-04-16T11:22:18;2.00;;;1.80;;
11141;SDS011;5625;50.122;19.864;2023-04-16T11:24:52;1.90;;;1.80;;
11141;SDS011;5625;50.122;19.864;2023-04-16T11:27:22;1.80;;;1.70;;
11141;SDS011;5625;50.122;19.864;2023-04-16T11:29:58;1.80;;;1.70;;
11141;SDS011;5625;50.122;19.864;2023-04-16T11:32:27;1.70;;;1.60;;
11141;SDS011;5625;50.122;19.864;2023-04-16T11:34:57;2.13;;;1.83;;
11141;SDS011;5625;50.122;19.864;2023-04-16T11:37:35;2.57;;;2.00;;
11141;SDS011;5625;50.122;19.864;2023-04-16T11:40:05;2.07;;;1.87;;
11141;SDS011;5625;50.122;19.864;2023-04-16T11:42:36;2.13;;;1.93;;
11141;SDS011;5625;50.122;19.864;2023-04-16T11:45:07;2.20;;;2.00;;
11141;SDS011;5625;50.122;19.864;2023-04-16T11:47:41;2.20;;;2.03;;
11141;SDS011;5625;50.122;19.864;2023-04-16T11:50:19;2.17;;;1.97;;
11141;SDS011;5625;50.122;19.864;2023-04-16T11:52:48;2.70;;;2.50;;
11141;SDS011;5625;50.122;19.864;2023-04-16T11:55:18;2.90;;;2.70;;
11141;SDS011;5625;50.122;19.864;2023-04-16T11:57:48;3.93;;;2.60;;
11141;SDS011;5625;50.122;19.864;2023-04-16T12:00:18;2.83;;;2.60;;
11141;SDS011;5625;50.122;19.864;2023-04-16T12:02:50;2.70;;;2.50;;
11141;SDS011;5625;50.122;19.864;2023-04-16T12:05:26;2.40;;;2.20;;
11141;SDS011;5625;50.122;19.864;2023-04-16T12:07:56;2.50;;;2.30;;
11141;SDS011;5625;50.122;19.864;2023-04-16T12:10:25;2.50;;;2.30;;
11141;SDS011;5625;50.122;19.864;2023-04-16T12:12:55;2.33;;;2.13;;
11141;SDS011;5625;50.122;19.864;2023-04-16T12:15:43;2.03;;;1.93;;
11141;SDS011;5625;50.122;19.864;2023-04-16T12:18:12;2.07;;;1.97;;
11141;SDS011;5625;50.122;19.864;2023-04-16T12:20:41;2.27;;;2.07;;
11141;SDS011;5625;50.122;19.864;2023-04-16T12:23:20;2.57;;;2.17;;
11141;SDS011;5625;50.122;19.864;2023-04-16T12:25:49;3.03;;;2.80;;
11141;SDS011;5625;50.122;19.864;2023-04-16T12:28:26;2.60;;;2.40;;
11141;SDS011;5625;50.122;19.864;2023-04-16T12:30:56;2.43;;;2.23;;
11141;SDS011;5625;50.122;19.864;2023-04-16T12:33:24;2.43;;;2.17;;
11141;SDS011;5625;50.122;19.864;2023-04-16T12:35:52;2.53;;;2.33;;
11141;SDS011;5625;50.122;19.864;2023-04-16T12:38:21;2.57;;;2.37;;
11141;SDS011;5625;50.122;19.864;2023-04-16T12:40:50;14.00;;;2.90;;
11141;SDS011;5625;50.122;19.864;2023-04-16T12:43:22;2.37;;;2.10;;
11141;SDS011;5625;50.122;19.864;2023-04-16T12:45:51;4.57;;;2.13;;
11141;SDS011;5625;50.122;19.864;2023-04-16T12:48:19;5.03;;;2.47;;
11141;SDS011;5625;50.122;19.864;2023-04-16T12:50:47;2.20;;;2.00;;
11141;SDS011;5625;50.122;19.864;2023-04-16T12:53:15;2.27;;;2.00;;
11141;SDS011;5625;50.122;19.864;2023-04-16T12:55:47;1.47;;;1.37;;
11141;SDS011;5625;50.122;19.864;2023-04-16T12:58:15;2.10;;;1.83;;
11141;SDS011;5625;50.122;19.864;2023-04-16T13:00:43;5.83;;;1.97;;
11141;SDS011;5625;50.122;19.864;2023-04-16T13:03:12;4.77;;;2.63;;
11141;SDS011;5625;50.122;19.864;2023-04-16T13:05:41;3.00;;;2.80;;
11141;SDS011;5625;50.122;19.864;2023-04-16T13:08:12;7.07;;;6.37;;
11141;SDS011;5625;50.122;19.864;2023-04-16T13:10:40;2.87;;;2.47;;
11141;SDS011;5625;50.122;19.864;2023-04-16T13:13:08;2.37;;;2.17;;
11141;SDS011;5625;50.122;19.864;2023-04-16T13:15:36;2.83;;;2.20;;
11141;SDS011;5625;50.122;19.864;2023-04-16T13:18:04;2.00;;;1.90;;
11141;SDS011;5625;50.122;19.864;2023-04-16T13:20:33;2.30;;;1.90;;
11141;SDS011;5625;50.122;19.864;2023-04-16T13:23:01;2.23;;;2.03;;
11141;SDS011;5625;50.122;19.864;2023-04-16T13:25:30;2.50;;;2.30;;
11141;SDS011;5625;50.122;19.864;2023-04-16T13:27:58;3.00;;;2.20;;
11141;SDS011;5625;50.122;19.864;2023-04-16T13:30:26;2.50;;;2.30;;
11141;SDS011;5625;50.122;19.864;2023-04-16T13:32:55;2.80;;;2.60;;
11141;SDS011;5625;50.122;19.864;2023-04-16T13:35:23;2.30;;;2.10;;
11141;SDS011;5625;50.122;19.864;2023-04-16T13:37:53;2.60;;;2.40;;
11141;SDS011;5625;50.122;19.864;2023-04-16T13:40:25;2.60;;;2.40;;
11141;SDS011;5625;50.122;19.864;2023-04-16T13:42:53;2.63;;;2.43;;
11141;SDS011;5625;50.122;19.864;2023-04-16T13:45:21;2.70;;;2.50;;
11141;SDS011;5625;50.122;19.864;2023-04-16T13:47:49;2.70;;;2.50;;
11141;SDS011;5625;50.122;19.864;2023-04-16T13:50:17;2.33;;;2.20;;
11141;SDS011;5625;50.122;19.864;2023-04-16T13:52:46;2.93;;;2.73;;
11141;SDS011;5625;50.122;19.864;2023-04-16T13:55:15;2.70;;;2.50;;
11141;SDS011;5625;50.122;19.864;2023-04-16T13:57:44;3.23;;;2.67;;
11141;SDS011;5625;50.122;19.864;2023-04-16T14:00:13;2.60;;;2.40;;
11141;SDS011;5625;50.122;19.864;2023-04-16T14:02:43;2.60;;;2.40;;
11141;SDS011;5625;50.122;19.864;2023-04-16T14:05:14;2.63;;;2.43;;
11141;SDS011;5625;50.122;19.864;2023-04-16T14:07:42;2.77;;;2.47;;
11141;SDS011;5625;50.122;19.864;2023-04-16T14:10:10;2.10;;;2.00;;
11141;SDS011;5625;50.122;19.864;2023-04-16T14:12:41;2.20;;;2.00;;
11141;SDS011;5625;50.122;19.864;2023-04-16T14:15:10;2.50;;;2.30;;
11141;SDS011;5625;50.122;19.864;2023-04-16T14:17:40;2.50;;;2.30;;
11141;SDS011;5625;50.122;19.864;2023-04-16T14:20:09;2.60;;;2.30;;
11141;SDS011;5625;50.122;19.864;2023-04-16T14:22:38;4.23;;;2.77;;
11141;SDS011;5625;50.122;19.864;2023-04-16T14:25:07;2.97;;;2.77;;
11141;SDS011;5625;50.122;19.864;2023-04-16T14:27:35;2.97;;;2.70;;
11141;SDS011;5625;50.122;19.864;2023-04-16T14:30:06;2.97;;;2.67;;
11141;SDS011;5625;50.122;19.864;2023-04-16T14:32:34;3.70;;;3.13;;
11141;SDS011;5625;50.122;19.864;2023-04-16T14:35:03;3.43;;;2.97;;
11141;SDS011;5625;50.122;19.864;2023-04-16T14:37:32;2.83;;;2.63;;
11141;SDS011;5625;50.122;19.864;2023-04-16T14:40:01;3.60;;;3.30;;
11141;SDS011;5625;50.122;19.864;2023-04-16T14:42:33;3.10;;;2.90;;
11141;SDS011;5625;50.122;19.864;2023-04-16T14:45:01;2.70;;;2.50;;
11141;SDS011;5625;50.122;19.864;2023-04-16T14:47:33;2.80;;;2.60;;
11141;SDS011;5625;50.122;19.864;2023-04-16T14:50:03;3.07;;;2.77;;
11141;SDS011;5625;50.122;19.864;2023-04-16T14:52:32;4.33;;;3.10;;